createdAt,value
2023-07-28T06:58:23.851Z,8.55
2023-07-28T07:00:51.566Z,9.30
2023-07-28T07:03:18.814Z,8.48
2023-07-28T07:05:46.001Z,6.70
2023-07-28T07:09:23.281Z,6.97
2023-07-28T07:11:50.798Z,6.90
2023-07-28T07:14:18.614Z,7.32
2023-07-28T07:16:46.099Z,7.70
2023-07-28T07:19:14.626Z,8.57
2023-07-28T07:21:41.810Z,8.98
2023-07-28T07:24:09.094Z,5.53
2023-07-28T07:26:36.246Z,7.07
2023-07-28T07:29:04.377Z,7.50
2023-07-28T07:31:31.557Z,7.85
2023-07-28T07:33:58.732Z,8.43
2023-07-28T07:36:25.858Z,6.53
2023-07-28T07:38:53.929Z,6.93
2023-07-28T07:41:30.315Z,6.40
2023-07-28T07:43:58.182Z,7.10
2023-07-28T07:46:25.928Z,8.65
2023-07-28T07:48:53.045Z,6.70
2023-07-28T07:51:20.224Z,7.78
2023-07-28T07:53:47.437Z,6.78
2023-07-28T08:00:16.574Z,8.40
2023-07-28T08:02:46.844Z,6.80
2023-07-28T08:05:14.293Z,7.63
2023-07-28T08:07:42.055Z,8.40
2023-07-28T08:10:09.349Z,7.72
2023-07-28T08:12:36.603Z,5.43
2023-07-28T08:15:04.153Z,7.67
2023-07-28T08:17:31.270Z,5.60
2023-07-28T08:19:58.652Z,6.70
2023-07-28T08:22:26.790Z,6.53
2023-07-28T08:24:54.035Z,5.50
2023-07-28T08:27:21.230Z,8.50
2023-07-28T08:29:48.417Z,6.95
2023-07-28T08:32:15.744Z,6.60
2023-07-28T08:34:43.210Z,8.75
2023-07-28T08:37:14.610Z,7.00
2023-07-28T08:39:41.718Z,7.03
2023-07-28T08:42:08.782Z,6.82
2023-07-28T08:44:41.252Z,8.55
2023-07-28T08:47:08.322Z,6.55
2023-07-28T08:49:37.671Z,7.45
2023-07-28T08:52:06.169Z,10.43
2023-07-28T08:54:33.716Z,11.13
2023-07-28T08:57:00.854Z,12.45
2023-07-28T08:59:33.375Z,9.88
2023-07-28T09:02:01.123Z,11.80
2023-07-28T09:04:28.897Z,11.03
2023-07-28T09:06:56.355Z,14.25
2023-07-28T09:09:24.907Z,16.80
2023-07-28T09:11:55.726Z,12.35
2023-07-28T09:14:26.641Z,11.82
2023-07-28T09:16:55.236Z,12.77
2023-07-28T09:19:23.510Z,7.80
2023-07-28T09:22:01.786Z,9.98
2023-07-28T09:24:33.756Z,7.05
2023-07-28T09:27:15.274Z,10.48
2023-07-28T09:29:51.480Z,8.37
2023-07-28T09:32:32.198Z,7.47
2023-07-28T09:35:20.553Z,7.57
2023-07-28T09:37:50.592Z,6.15
2023-07-28T09:40:28.620Z,8.93
2023-07-28T09:42:56.687Z,5.40
2023-07-28T09:47:59.582Z,7.28
2023-07-28T09:50:29.541Z,5.30
2023-07-28T09:53:01.971Z,5.97
2023-07-28T09:55:30.118Z,6.77
2023-07-28T09:58:02.561Z,6.07
2023-07-28T10:00:30.535Z,6.20
2023-07-28T10:02:59.202Z,6.97
2023-07-28T10:05:27.310Z,6.55
2023-07-28T10:07:55.923Z,7.43
2023-07-28T10:10:23.158Z,7.63
2023-07-28T10:12:52.069Z,6.50
2023-07-28T10:15:21.992Z,5.97
2023-07-28T10:18:04.844Z,6.70
